Time;durP1;ratioP1;P1;durP2;ratioP2;P2;SDS_P1;SDS_P2;PMS_P1;PMS_P2;Temp;Humidity;BMP_temperature;BMP_pressure;BME280_temperature;BME280_humidity;BME280_pressure;Samples;Min_cycle;Max_cycle;Signal;HPM_P1;HPM_P2
2021/12/25 00:00:52;;;;;;;36.83;20.20;;;;;;;4.24;100.00;97104.00;5111766;28;20383;-76
2021/12/25 00:03:18;;;;;;;35.67;19.58;;;;;;;4.28;100.00;97100.47;5111420;28;20049;-75
2021/12/25 00:05:47;;;;;;;36.85;19.77;;;;;;;4.29;100.00;97099.38;5111189;28;20046;-74
2021/12/25 00:08:13;;;;;;;36.20;19.90;;;;;;;4.24;100.00;97107.53;5111659;28;20059;-75
2021/12/25 00:10:39;;;;;;;35.55;19.45;;;;;;;4.18;100.00;97100.50;5111215;28;20096;-75
2021/12/25 00:13:04;;;;;;;35.95;21.02;;;;;;;4.15;100.00;97106.47;5111367;28;20028;-75
2021/12/25 00:15:30;;;;;;;38.97;19.65;;;;;;;4.12;100.00;97096.19;5111143;28;20023;-74
2021/12/25 00:17:55;;;;;;;37.05;19.88;;;;;;;4.16;100.00;97097.28;5111105;28;20027;-77
2021/12/25 00:20:21;;;;;;;34.88;20.58;;;;;;;4.16;100.00;97101.88;5111193;28;20027;-75
2021/12/25 00:22:46;;;;;;;36.55;22.40;;;;;;;4.03;100.00;97088.91;5111360;28;20008;-75
2021/12/25 00:25:12;;;;;;;38.50;21.27;;;;;;;3.99;100.00;97096.78;5111259;28;20067;-76
2021/12/25 00:27:47;;;;;;;42.30;23.20;;;;;;;3.85;100.00;97095.72;5111159;28;20034;-77
2021/12/25 00:33:32;;;;;;;41.38;23.30;;;;;;;3.70;100.00;97084.91;5101984;28;20044;-72
2021/12/25 00:35:53;;;;;;;40.97;22.00;;;;;;;3.54;100.00;97084.13;5108744;28;20032;-75
2021/12/25 00:38:18;;;;;;;41.50;22.98;;;;;;;3.53;100.00;97077.13;5088679;28;20051;-74
2021/12/25 00:40:44;;;;;;;41.45;23.20;;;;;;;3.46;100.00;97076.56;5090648;28;20032;-76
2021/12/25 00:43:09;;;;;;;36.70;22.77;;;;;;;3.42;100.00;97078.19;5091789;28;20024;-76
2021/12/25 00:45:34;;;;;;;37.30;21.77;;;;;;;3.32;100.00;97082.81;5094977;28;20024;-74
2021/12/25 00:48:00;;;;;;;39.28;23.40;;;;;;;3.26;100.00;97086.59;5095280;28;20085;-75
2021/12/25 00:50:25;;;;;;;40.83;23.60;;;;;;;3.22;100.00;97095.25;5095398;28;20028;-73
2021/12/25 00:52:50;;;;;;;39.80;22.40;;;;;;;3.22;100.00;97081.72;5094869;28;20111;-75
2021/12/25 00:55:16;;;;;;;39.53;23.17;;;;;;;3.26;100.00;97089.28;5092259;28;20032;-75
2021/12/25 00:57:41;;;;;;;39.35;22.50;;;;;;;3.26;100.00;97086.59;5093687;28;20077;-73
2021/12/25 01:00:10;;;;;;;41.42;23.08;;;;;;;3.30;100.00;97093.88;5093665;28;20455;-76
2021/12/25 01:02:42;;;;;;;44.22;23.35;;;;;;;3.24;100.00;97079.56;5093889;28;20119;-77
2021/12/25 01:05:08;;;;;;;39.47;21.70;;;;;;;3.23;100.00;97082.50;5092597;28;20032;-75
2021/12/25 01:07:34;;;;;;;41.90;22.60;;;;;;;3.18;100.00;97072.53;5094805;28;20412;-74
2021/12/25 01:10:03;;;;;;;40.78;23.67;;;;;;;3.27;100.00;97086.31;5093729;28;20131;-75
2021/12/25 01:12:35;;;;;;;41.03;23.17;;;;;;;3.27;100.00;97090.91;5093721;28;20032;-75
2021/12/25 01:15:03;;;;;;;48.30;22.75;;;;;;;3.18;100.00;97083.34;5094027;28;20027;-76
2021/12/25 01:17:56;;;;;;;37.30;21.75;;;;;;;3.22;100.00;97084.44;5092297;28;20028;-75
2021/12/25 01:23:47;;;;;;;42.55;24.00;;;;;;;3.32;100.00;97099.03;5073797;28;20040;-76
2021/12/25 01:26:56;;;;;;;39.60;23.08;;;;;;;3.38;100.00;97104.16;5094294;28;20040;-76
2021/12/25 01:29:15;;;;;;;45.45;25.77;;;;;;;3.29;100.00;97107.66;5090616;28;20097;-76
2021/12/25 01:31:52;;;;;;;43.25;24.13;;;;;;;3.24;100.00;97106.56;5093423;28;20590;-74
2021/12/25 01:50:02;;;;;;;37.42;21.30;;;;;;;2.92;100.00;97097.06;5094350;28;20054;-76
2021/12/25 01:52:30;;;;;;;40.92;23.65;;;;;;;2.95;100.00;97091.94;5093379;28;20028;-79
2021/12/25 01:55:03;;;;;;;41.70;23.38;;;;;;;2.90;100.00;97102.75;5092809;28;20492;-79
2021/12/25 01:57:30;;;;;;;44.80;24.15;;;;;;;2.75;100.00;97083.84;5094243;28;20063;-80
2021/12/25 01:59:56;;;;;;;37.33;21.58;;;;;;;2.76;100.00;97087.34;5093598;28;20035;-76
2021/12/25 02:02:23;;;;;;;44.08;23.02;;;;;;;2.75;100.00;97091.94;5100200;28;20381;-81
2021/12/25 02:04:49;;;;;;;42.15;22.50;;;;;;;2.68;100.00;97088.66;5098213;28;20077;-80
2021/12/25 02:07:15;;;;;;;39.70;23.75;;;;;;;2.61;100.00;97091.63;5094141;28;20097;-74
2021/12/25 02:09:40;;;;;;;43.85;21.92;;;;;;;2.60;100.00;97089.19;5108914;28;20058;-75
2021/12/25 02:12:07;;;;;;;39.38;22.65;;;;;;;2.69;100.00;97088.38;5092758;28;20020;-74
2021/12/25 02:14:34;;;;;;;42.03;22.73;;;;;;;2.79;100.00;97084.91;5092957;28;20533;-74
2021/12/25 02:17:13;;;;;;;40.47;23.55;;;;;;;2.79;100.00;97078.72;5092850;28;20027;-74
2021/12/25 02:19:49;;;;;;;42.40;24.23;;;;;;;2.72;100.00;97082.44;5092626;28;20032;-74
2021/12/25 02:22:14;;;;;;;40.65;22.33;;;;;;;2.75;100.00;97078.44;5092839;28;20116;-74
2021/12/25 02:24:40;;;;;;;39.58;23.27;;;;;;;2.76;100.00;97092.75;5092865;28;21368;-74
2021/12/25 02:27:05;;;;;;;36.38;20.45;;;;;;;2.76;100.00;97088.13;5093245;28;20028;-75
2021/12/25 02:29:31;;;;;;;35.63;20.58;;;;;;;2.84;100.00;97071.44;5092921;28;20039;-74
2021/12/25 02:31:58;;;;;;;37.75;20.67;;;;;;;2.82;100.00;97086.28;5092567;28;20028;-73
2021/12/25 02:34:24;;;;;;;43.08;20.60;;;;;;;2.83;100.00;97083.28;5092521;28;20027;-76
2021/12/25 02:36:49;;;;;;;37.42;20.92;;;;;;;2.85;100.00;97064.16;5092569;28;20393;-73
2021/12/25 02:39:15;;;;;;;34.95;20.33;;;;;;;2.83;100.00;97088.69;5092562;28;20024;-78
2021/12/25 02:41:41;;;;;;;38.25;20.40;;;;;;;2.92;100.00;97084.38;5092466;28;20531;-81
2021/12/25 02:44:10;;;;;;;37.70;22.23;;;;;;;2.88;100.00;97077.88;5092699;28;20119;-80
2021/12/25 02:46:36;;;;;;;39.08;20.95;;;;;;;2.93;100.00;97086.03;5092686;28;20024;-79
2021/12/25 02:49:01;;;;;;;36.45;20.95;;;;;;;3.09;100.00;97078.75;5092854;28;20024;-81
2021/12/25 02:51:27;;;;;;;38.80;20.75;;;;;;;3.09;100.00;97087.66;5092727;28;20031;-79
2021/12/25 02:53:53;;;;;;;40.28;22.17;;;;;;;3.10;100.00;97081.16;5107315;28;20377;-80
2021/12/25 02:56:18;;;;;;;35.47;20.63;;;;;;;3.19;100.00;97087.69;5091644;28;20073;-80
2021/12/25 02:58:44;;;;;;;38.13;22.02;;;;;;;3.29;100.00;97094.16;5092920;28;20036;-80
2021/12/25 03:01:16;;;;;;;34.95;21.08;;;;;;;3.22;100.00;97095.25;5092824;28;20090;-77
2021/12/25 03:03:42;;;;;;;35.72;20.23;;;;;;;3.23;100.00;97088.75;5092517;28;20017;-77
2021/12/25 03:06:09;;;;;;;35.90;19.27;;;;;;;3.27;100.00;97099.00;5091781;28;20081;-80
2021/12/25 03:08:35;;;;;;;34.55;18.77;;;;;;;3.36;100.00;97087.38;5092518;28;20024;-78
2021/12/25 03:11:03;;;;;;;34.50;19.52;;;;;;;3.32;100.00;97082.81;5091193;28;20488;-78
2021/12/25 03:16:00;;;;;;;31.38;19.20;;;;;;;3.44;100.00;97080.63;5092109;28;20084;-77
2021/12/25 03:18:32;;;;;;;34.22;18.80;;;;;;;3.32;100.00;97075.50;5107729;28;20023;-81
2021/12/25 03:21:02;;;;;;;34.95;19.77;;;;;;;3.45;100.00;97080.34;5091530;28;20510;-76
2021/12/25 03:23:29;;;;;;;31.52;18.20;;;;;;;3.51;100.00;97068.44;5091553;28;20032;-82
2021/12/25 03:25:59;;;;;;;34.15;20.65;;;;;;;3.55;100.00;97061.44;5092158;28;20472;-80
2021/12/25 03:28:32;;;;;;;32.38;18.00;;;;;;;3.62;100.00;97069.25;5092156;28;20028;-76
2021/12/25 03:31:04;;;;;;;31.55;18.02;;;;;;;3.68;100.00;97065.47;5091502;28;20050;-74
2021/12/25 03:33:31;;;;;;;32.72;18.45;;;;;;;3.64;100.00;97065.19;5091525;28;20042;-76
2021/12/25 03:35:57;;;;;;;29.38;18.77;;;;;;;3.71;100.00;97056.81;5091270;28;20027;-74
2021/12/25 03:38:23;;;;;;;33.22;17.88;;;;;;;3.64;100.00;97061.69;5091388;28;20032;-74
2021/12/25 03:40:53;;;;;;;32.22;18.08;;;;;;;3.62;100.00;97058.44;5091510;28;20031;-74
2021/12/25 03:43:20;;;;;;;34.28;18.58;;;;;;;3.65;100.00;97068.72;5091217;28;20438;-75
2021/12/25 03:45:46;;;;;;;32.38;19.38;;;;;;;3.60;100.00;97060.63;5091444;28;20028;-75
2021/12/25 03:53:37;;;;;;;31.65;18.58;;;;;;;3.42;100.00;97058.47;5091781;28;20171;-75
2021/12/25 03:58:48;;;;;;;;;;;;;;;3.30;100.00;97074.97;5096200;28;20043;-76
2021/12/25 04:04:21;;;;;;;33.92;19.83;;;;;;;3.20;100.00;97069.53;5029508;28;20004;-74
2021/12/25 04:07:07;;;;;;;35.83;19.08;;;;;;;3.30;100.00;97068.75;5081074;28;20043;-76
2021/12/25 04:09:37;;;;;;;33.50;19.52;;;;;;;3.30;100.00;97066.03;5091238;28;20046;-77
2021/12/25 04:12:10;;;;;;;35.13;18.77;;;;;;;3.28;100.00;97062.81;5107012;28;20081;-76
2021/12/25 04:14:37;;;;;;;36.72;20.13;;;;;;;3.34;100.00;97062.53;5091524;28;20031;-76
2021/12/25 04:17:03;;;;;;;33.63;18.80;;;;;;;3.34;100.00;97056.31;5092589;28;20028;-76
2021/12/25 04:19:29;;;;;;;38.03;20.83;;;;;;;3.35;100.00;97063.34;5095241;28;20036;-74
2021/12/25 04:22:02;;;;;;;32.30;18.98;;;;;;;3.38;100.00;97060.91;5095039;28;20026;-74
2021/12/25 04:24:31;;;;;;;33.47;19.67;;;;;;;3.34;100.00;97077.94;5095048;28;20066;-78
2021/12/25 04:26:57;;;;;;;36.92;19.80;;;;;;;3.38;100.00;97062.81;5103775;28;20046;-75
2021/12/25 05:01:53;;;;;;;37.88;19.30;;;;;;;3.33;100.00;97052.81;5114784;28;20092;-77
2021/12/25 05:04:28;;;;;;;35.13;18.08;;;;;;;3.40;100.00;97055.22;5114380;28;20027;-76
2021/12/25 05:06:53;;;;;;;27.93;16.50;;;;;;;3.35;100.00;97050.66;5114771;28;20369;-77
2021/12/25 05:09:18;;;;;;;31.83;18.67;;;;;;;3.39;100.00;97056.31;5114482;28;20029;-75
2021/12/25 05:11:44;;;;;;;27.30;15.57;;;;;;;3.40;100.00;97061.44;5114381;28;20027;-77
2021/12/25 05:14:09;;;;;;;30.65;17.15;;;;;;;3.31;100.00;97048.75;5114454;28;20024;-74
2021/12/25 05:16:35;;;;;;;32.67;18.42;;;;;;;3.36;100.00;97054.13;5114355;28;20007;-73
2021/12/25 05:19:00;;;;;;;32.67;18.70;;;;;;;3.39;100.00;97064.41;5113204;28;20027;-74
2021/12/25 05:21:26;;;;;;;30.98;17.25;;;;;;;3.40;100.00;97071.44;5093502;28;20052;-78
2021/12/25 05:23:52;;;;;;;31.00;17.92;;;;;;;3.48;100.00;97060.06;5093650;28;20028;-77
2021/12/25 05:26:18;;;;;;;31.88;18.40;;;;;;;3.39;100.00;97067.13;5093669;28;20119;-76
2021/12/25 05:28:46;;;;;;;33.33;17.83;;;;;;;3.32;100.00;97069.31;5093234;28;20085;-77
2021/12/25 05:31:14;;;;;;;31.42;17.90;;;;;;;3.36;100.00;97052.25;5094000;28;20491;-77
2021/12/25 05:33:42;;;;;;;29.70;17.52;;;;;;;3.42;100.00;97053.88;5093778;28;20472;-75
2021/12/25 05:36:08;;;;;;;32.88;18.42;;;;;;;3.53;100.00;97060.09;5093588;28;20465;-76
2021/12/25 05:38:35;;;;;;;30.48;16.85;;;;;;;3.58;100.00;97049.25;5093391;28;20032;-77
2021/12/25 05:41:02;;;;;;;32.15;17.38;;;;;;;3.58;100.00;97057.38;5094041;28;20032;-76
2021/12/25 05:43:27;;;;;;;30.45;17.17;;;;;;;3.56;100.00;97054.13;5097693;28;20032;-79
2021/12/25 05:45:53;;;;;;;35.25;16.98;;;;;;;3.55;100.00;97053.31;5100579;28;20031;-78
2021/12/25 05:48:19;;;;;;;30.77;17.17;;;;;;;3.54;100.00;97050.91;5096972;28;20028;-78
2021/12/25 05:50:45;;;;;;;30.08;17.08;;;;;;;3.60;100.00;97044.41;5103416;28;20031;-79
2021/12/25 05:53:10;;;;;;;28.83;16.85;;;;;;;3.54;100.00;97056.31;5095129;28;20036;-77
2021/12/25 05:55:36;;;;;;;30.48;17.80;;;;;;;3.67;100.00;97059.25;5093795;28;20118;-76
2021/12/25 05:58:03;;;;;;;30.02;17.40;;;;;;;3.73;100.00;97066.25;5093769;28;20016;-78
2021/12/25 06:00:30;;;;;;;31.02;18.80;;;;;;;3.60;100.00;97055.22;5095360;28;20121;-76
2021/12/25 06:02:56;;;;;;;55.45;29.00;;;;;;;3.56;100.00;97057.66;5093502;28;20032;-81
2021/12/25 06:05:22;;;;;;;44.38;24.17;;;;;;;3.64;100.00;97061.69;5094555;28;20031;-76
2021/12/25 06:07:47;;;;;;;38.72;21.75;;;;;;;3.67;100.00;97061.13;5105295;28;20035;-76
2021/12/25 06:10:13;;;;;;;45.03;25.00;;;;;;;3.59;100.00;97057.09;5113401;28;20656;-76
2021/12/25 06:12:40;;;;;;;54.58;28.30;;;;;;;3.62;100.00;97064.66;5112964;28;20032;-75
2021/12/25 06:15:07;;;;;;;54.47;26.95;;;;;;;3.62;100.00;97064.66;5112775;28;20024;-76
2021/12/25 06:17:33;;;;;;;50.78;27.27;;;;;;;3.59;100.00;97072.50;5112927;28;20023;-77
2021/12/25 06:19:58;;;;;;;45.50;23.92;;;;;;;3.62;100.00;97075.47;5104247;28;20077;-78
2021/12/25 06:22:24;;;;;;;58.50;28.73;;;;;;;3.52;100.00;97063.88;5093553;28;20042;-85
2021/12/25 06:24:49;;;;;;;41.83;22.30;;;;;;;3.45;100.00;97074.13;5094319;28;20490;-79
2021/12/25 06:27:20;;;;;;;42.75;21.40;;;;;;;3.45;100.00;97071.44;5094416;28;20056;-82
2021/12/25 06:29:45;;;;;;;40.35;23.50;;;;;;;3.41;100.00;97067.66;5095466;28;20035;-81
2021/12/25 06:32:11;;;;;;;36.72;21.27;;;;;;;3.41;100.00;97064.97;5103444;28;20106;-80
2021/12/25 06:34:37;;;;;;;37.70;21.13;;;;;;;3.50;100.00;97066.84;5114411;28;20475;-76
2021/12/25 06:37:03;;;;;;;31.73;18.88;;;;;;;3.55;100.00;97072.25;5115442;28;20035;-78
2021/12/25 06:39:29;;;;;;;32.70;19.25;;;;;;;3.52;100.00;97067.38;5116854;28;20059;-75
2021/12/25 06:41:55;;;;;;;30.95;18.90;;;;;;;3.52;100.00;97080.09;5116228;27;20020;-83
2021/12/25 06:44:23;;;;;;;36.80;19.17;;;;;;;3.52;100.00;97077.38;5116673;28;20428;-82
2021/12/25 06:46:49;;;;;;;31.55;19.13;;;;;;;3.44;100.00;97067.13;5119061;28;20032;-79
2021/12/25 06:49:18;;;;;;;33.63;18.92;;;;;;;3.41;100.00;97073.06;5117049;28;20479;-82
2021/12/25 06:51:44;;;;;;;31.13;18.77;;;;;;;3.41;100.00;97075.78;5115897;28;20085;-80
2021/12/25 06:54:09;;;;;;;41.13;20.98;;;;;;;3.45;100.00;97077.66;5116790;28;20043;-83
2021/12/25 06:56:34;;;;;;;31.58;18.60;;;;;;;3.43;100.00;97089.81;5116187;28;20070;-82
2021/12/25 06:59:00;;;;;;;34.25;19.77;;;;;;;3.44;100.00;97089.56;5118487;28;20028;-76
2021/12/25 07:01:25;;;;;;;34.47;18.92;;;;;;;3.54;100.00;97083.34;5117281;28;20602;-82
2021/12/25 07:03:51;;;;;;;35.80;20.73;;;;;;;3.56;100.00;97083.88;5116069;28;20016;-81
2021/12/25 07:06:17;;;;;;;35.85;21.05;;;;;;;3.54;100.00;97083.34;5113798;28;20023;-80
2021/12/25 07:08:42;;;;;;;35.25;20.02;;;;;;;3.52;100.00;97080.91;5115119;28;20027;-82
2021/12/25 07:11:07;;;;;;;35.03;21.80;;;;;;;3.54;100.00;97072.53;5116190;28;20027;-83
2021/12/25 07:13:33;;;;;;;31.95;20.17;;;;;;;3.55;100.00;97071.44;5116805;28;20015;-78
2021/12/25 07:15:58;;;;;;;36.10;21.05;;;;;;;3.62;100.00;97077.38;5117671;28;20020;-84
2021/12/25 07:18:25;;;;;;;36.60;21.15;;;;;;;3.69;100.00;97073.31;5117637;28;20024;-78
2021/12/25 07:20:51;;;;;;;36.88;21.15;;;;;;;3.66;100.00;97075.75;5114611;28;20020;-82
2021/12/25 07:23:17;;;;;;;37.28;20.05;;;;;;;3.73;100.00;97070.84;5113189;28;20040;-79
2021/12/25 07:25:43;;;;;;;34.22;19.95;;;;;;;3.72;100.00;97071.94;5115188;28;20028;-85
2021/12/25 07:28:08;;;;;;;27.67;17.60;;;;;;;3.96;100.00;97067.56;5114838;28;20019;-79
2021/12/25 07:30:34;;;;;;;33.88;19.40;;;;;;;3.81;100.00;97062.19;5113059;28;20097;-84
2021/12/25 07:32:59;;;;;;;30.55;18.50;;;;;;;4.01;100.00;97067.53;5114811;28;20468;-79
2021/12/25 07:35:28;;;;;;;29.42;16.95;;;;;;;3.94;100.00;97052.69;5112584;28;20031;-76
2021/12/25 07:37:54;;;;;;;24.85;15.95;;;;;;;3.89;100.00;97058.91;5119726;28;20024;-85
2021/12/25 07:40:19;;;;;;;29.27;16.10;;;;;;;3.92;100.00;97061.06;5124204;28;20027;-82
2021/12/25 07:42:45;;;;;;;28.13;17.33;;;;;;;3.92;100.00;97069.19;5119519;28;20459;-83
2021/12/25 07:45:12;;;;;;;25.85;16.55;;;;;;;3.89;100.00;97063.50;5123535;28;20384;-76
2021/12/25 07:47:45;;;;;;;34.53;17.10;;;;;;;3.86;100.00;97062.16;5112712;28;20015;-80
2021/12/25 07:50:11;;;;;;;28.50;16.60;;;;;;;3.77;100.00;97061.13;5117396;28;20030;-80
2021/12/25 07:52:37;;;;;;;30.15;15.85;;;;;;;3.84;100.00;97058.94;5115013;28;20024;-88
2021/12/25 07:55:03;;;;;;;27.08;15.25;;;;;;;3.94;100.00;97058.91;5125835;28;20167;-82
2021/12/25 07:57:28;;;;;;;26.20;16.35;;;;;;;4.01;100.00;97069.47;5128944;28;20031;-81
2021/12/25 07:59:55;;;;;;;24.85;15.45;;;;;;;4.07;100.00;97061.03;5122102;28;20046;-78
2021/12/25 08:02:21;;;;;;;34.30;20.00;;;;;;;3.97;100.00;97062.97;5122721;28;20024;-85
2021/12/25 08:04:46;;;;;;;37.97;20.73;;;;;;;3.97;100.00;97066.50;5122308;28;20087;-79
2021/12/25 08:07:12;;;;;;;32.10;18.40;;;;;;;4.06;100.00;97064.84;5115353;28;20051;-84
2021/12/25 08:09:38;;;;;;;32.92;18.63;;;;;;;4.13;100.00;97065.34;5116265;28;20030;-82
2021/12/25 08:12:04;;;;;;;31.98;18.08;;;;;;;4.17;100.00;97057.47;5117245;28;20820;-87
2021/12/25 08:14:32;;;;;;;32.47;18.90;;;;;;;4.16;100.00;97067.50;5118100;28;20023;-84
2021/12/25 08:17:00;;;;;;;26.42;16.88;;;;;;;4.18;100.00;97057.22;5119873;28;20048;-84
2021/12/25 08:19:26;;;;;;;29.42;16.50;;;;;;;4.29;100.00;97066.91;5111796;28;20035;-75
2021/12/25 08:21:52;;;;;;;27.25;16.17;;;;;;;4.30;100.00;97065.81;5111407;28;20119;-83
2021/12/25 08:24:18;;;;;;;26.60;16.85;;;;;;;4.26;100.00;97066.66;5111181;28;20106;-74
2021/12/25 08:26:45;;;;;;;31.67;16.02;;;;;;;4.20;100.00;97063.16;5111418;28;20123;-81
2021/12/25 08:29:10;;;;;;;27.20;16.77;;;;;;;4.15;100.00;97068.59;5112591;28;20024;-76
2021/12/25 08:31:36;;;;;;;28.13;16.50;;;;;;;4.06;100.00;97070.25;5111079;28;20024;-75
2021/12/25 08:34:02;;;;;;;27.35;17.02;;;;;;;4.20;100.00;97065.84;5111099;28;20035;-76
2021/12/25 08:36:28;;;;;;;27.30;16.02;;;;;;;4.35;100.00;97067.72;5111290;28;20029;-76
2021/12/25 08:38:53;;;;;;;28.67;17.05;;;;;;;4.20;100.00;97060.44;5111099;28;20034;-75
2021/12/25 08:41:21;;;;;;;29.60;16.60;;;;;;;4.25;100.00;97063.16;5111364;28;20035;-79
2021/12/25 08:43:48;;;;;;;28.17;15.40;;;;;;;5.25;100.00;97066.34;5111733;28;20024;-78
2021/12/25 08:46:24;;;;;;;24.63;15.18;;;;;;;5.20;100.00;97066.34;5094979;28;20012;-76
2021/12/25 08:48:52;;;;;;;26.70;15.60;;;;;;;5.14;100.00;97074.81;5112667;28;20030;-75
2021/12/25 08:51:17;;;;;;;23.60;13.90;;;;;;;5.08;100.00;97074.03;5109955;28;20025;-75
2021/12/25 08:53:43;;;;;;;23.77;13.55;;;;;;;4.94;100.00;97078.47;5110877;28;20043;-76
2021/12/25 08:56:08;;;;;;;22.23;13.80;;;;;;;4.84;100.00;97070.41;5110028;28;20031;-75
2021/12/25 08:58:34;;;;;;;22.25;13.57;;;;;;;4.76;100.00;97081.84;5105158;28;20030;-81
2021/12/25 09:01:02;;;;;;;24.42;13.48;;;;;;;4.74;100.00;97070.47;5113421;28;20445;-75
2021/12/25 09:03:29;;;;;;;24.20;14.00;;;;;;;4.62;100.00;97073.53;5112714;28;20535;-78
2021/12/25 09:06:00;;;;;;;26.67;14.45;;;;;;;4.64;100.00;97076.75;5117557;28;20035;-88
2021/12/25 09:08:26;;;;;;;23.45;14.00;;;;;;;4.60;100.00;97091.13;5115963;28;20027;-83
2021/12/25 09:10:53;;;;;;;23.88;14.18;;;;;;;4.73;100.00;97088.63;5115161;28;20020;-75
2021/12/25 09:13:18;;;;;;;22.92;13.70;;;;;;;4.81;100.00;97088.03;5113226;28;20024;-82
2021/12/25 09:15:44;;;;;;;24.20;13.23;;;;;;;4.75;100.00;97083.75;5110249;28;20035;-77
2021/12/25 09:18:09;;;;;;;21.38;13.18;;;;;;;4.89;100.00;97067.66;5112198;28;20109;-75
2021/12/25 09:20:35;;;;;;;22.58;13.55;;;;;;;5.04;100.00;97081.13;5114034;28;20380;-83
2021/12/25 09:23:01;;;;;;;20.58;12.57;;;;;;;5.19;100.00;97067.47;5117343;28;20788;-78
2021/12/25 09:25:27;;;;;;;21.02;13.02;;;;;;;5.22;100.00;97063.38;5106713;28;20023;-85
2021/12/25 09:27:53;;;;;;;23.85;13.20;;;;;;;5.27;100.00;97063.31;5117087;28;20073;-84
2021/12/25 09:30:19;;;;;;;20.33;12.00;;;;;;;5.35;100.00;97063.56;5114910;28;20023;-76
2021/12/25 09:32:45;;;;;;;23.55;14.18;;;;;;;5.25;100.00;97055.50;5113750;28;20050;-76
2021/12/25 09:35:13;;;;;;;27.05;15.23;;;;;;;5.33;100.00;97057.59;5112326;28;20551;-75
2021/12/25 09:37:40;;;;;;;24.55;14.13;;;;;;;5.32;100.00;97066.81;5120609;28;20042;-79
2021/12/25 09:40:08;;;;;;;24.17;14.35;;;;;;;5.33;100.00;97065.72;5112755;28;20035;-83
2021/12/25 09:42:34;;;;;;;30.05;15.27;;;;;;;5.30;100.00;97046.50;5116307;28;20119;-84
2021/12/25 09:45:00;;;;;;;22.38;13.93;;;;;;;5.30;100.00;97052.72;5106166;28;20130;-78
2021/12/25 09:47:26;;;;;;;28.90;16.08;;;;;;;5.30;100.00;97068.19;5105296;28;20020;-74
2021/12/25 09:49:52;;;;;;;25.45;15.57;;;;;;;5.22;100.00;97052.53;5117116;28;20024;-87
2021/12/25 09:52:17;;;;;;;25.77;15.65;;;;;;;5.13;100.00;97049.63;5116900;28;20019;-76
2021/12/25 09:54:43;;;;;;;26.90;15.10;;;;;;;5.22;100.00;97053.34;5120590;27;20039;-85
2021/12/25 09:57:09;;;;;;;29.05;17.38;;;;;;;5.13;100.00;97044.22;5117581;28;20027;-81
2021/12/25 09:59:35;;;;;;;28.25;17.30;;;;;;;5.17;100.00;97049.88;5115740;28;20098;-79
2021/12/25 10:02:02;;;;;;;34.45;19.90;;;;;;;5.05;100.00;97050.22;5116367;28;20031;-84
2021/12/25 10:04:35;;;;;;;37.75;20.63;;;;;;;5.10;100.00;97033.13;5115660;28;20029;-85
2021/12/25 10:07:22;;;;;;;36.72;19.67;;;;;;;5.04;100.00;97039.66;5116938;28;20491;-79
2021/12/25 10:10:10;;;;;;;38.42;19.42;;;;;;;5.15;100.00;97039.31;5117794;28;20061;-75
2021/12/25 10:12:41;;;;;;;33.55;20.30;;;;;;;5.19;100.00;97029.53;5110096;28;20146;-76
2021/12/25 10:15:11;;;;;;;30.08;18.58;;;;;;;5.08;100.00;97033.38;5110102;28;20114;-75
2021/12/25 10:17:48;;;;;;;35.30;20.67;;;;;;;5.13;100.00;97030.66;5112320;28;20016;-82
2021/12/25 10:20:22;;;;;;;34.75;20.33;;;;;;;5.32;100.00;97022.63;5114016;28;20062;-76
2021/12/25 10:23:07;;;;;;;36.33;21.45;;;;;;;4.97;100.00;97021.03;5107858;28;20059;-78
2021/12/25 10:25:49;;;;;;;34.90;19.77;;;;;;;5.12;100.00;97037.16;5111647;28;20029;-76
2021/12/25 10:28:18;;;;;;;37.95;20.55;;;;;;;5.12;100.00;97028.22;5112809;28;20032;-74
2021/12/25 10:30:55;;;;;;;37.80;21.85;;;;;;;5.12;100.00;97029.03;5105818;28;20048;-75
2021/12/25 10:33:28;;;;;;;41.97;22.63;;;;;;;5.13;100.00;97032.56;5103288;28;20539;-74
2021/12/25 10:35:58;;;;;;;40.30;22.42;;;;;;;5.14;100.00;97026.84;5109172;28;20510;-75
2021/12/25 10:38:24;;;;;;;55.28;28.83;;;;;;;5.12;100.00;97026.31;5111113;28;20123;-75
2021/12/25 10:41:07;;;;;;;42.67;24.65;;;;;;;5.20;100.00;97033.84;5113907;28;20031;-76
2021/12/25 10:43:35;;;;;;;38.63;21.38;;;;;;;5.20;100.00;97023.00;5112991;28;20126;-85
2021/12/25 10:46:02;;;;;;;38.45;22.45;;;;;;;5.27;100.00;97020.75;5113529;28;20028;-84
2021/12/25 10:48:32;;;;;;;40.22;22.23;;;;;;;5.25;100.00;97025.69;5109562;28;20042;-82
2021/12/25 10:50:59;;;;;;;41.03;23.75;;;;;;;5.25;100.00;97022.97;5104875;28;20048;-80
2021/12/25 10:53:41;;;;;;;40.60;23.17;;;;;;;5.29;100.00;97031.34;5110302;28;20097;-74
2021/12/25 10:56:12;;;;;;;37.70;22.90;;;;;;;5.32;100.00;97018.03;5107357;28;20476;-75
2021/12/25 10:58:39;;;;;;;37.80;21.85;;;;;;;5.37;100.00;97031.53;5104935;28;20102;-74
2021/12/25 11:01:08;;;;;;;31.70;19.98;;;;;;;5.40;100.00;97016.59;5107907;28;20509;-86
2021/12/25 11:03:36;;;;;;;32.30;20.40;;;;;;;5.45;100.00;97013.03;5112366;28;20030;-79
2021/12/25 11:06:06;;;;;;;38.75;21.50;;;;;;;5.45;100.00;97010.31;5115250;28;20111;-74
2021/12/25 11:08:32;;;;;;;33.92;20.70;;;;;;;5.38;100.00;97006.03;5112355;28;20049;-76
2021/12/25 11:11:10;;;;;;;36.05;20.85;;;;;;;5.50;100.00;97008.38;5104990;28;20056;-77
2021/12/25 11:14:03;;;;;;;35.20;22.38;;;;;;;5.55;100.00;97010.19;5106389;28;20024;-78
2021/12/25 11:16:35;;;;;;;39.95;24.02;;;;;;;5.65;100.00;97004.69;5107023;28;20098;-75
2021/12/25 11:19:11;;;;;;;39.13;22.77;;;;;;;5.66;100.00;97000.88;5110979;28;20483;-75
2021/12/25 11:21:57;;;;;;;38.58;22.42;;;;;;;5.70;100.00;96996.50;5110785;28;20119;-74
2021/12/25 11:24:32;;;;;;;35.75;23.55;;;;;;;5.86;100.00;96995.25;5111753;28;20020;-74
2021/12/25 11:27:00;;;;;;;40.67;25.00;;;;;;;5.98;100.00;96987.53;5112715;28;20031;-78
2021/12/25 11:29:28;;;;;;;44.35;26.10;;;;;;;6.20;100.00;96987.78;5119819;28;20055;-77
2021/12/25 11:31:57;;;;;;;39.25;24.00;;;;;;;5.97;100.00;96985.91;5115249;28;20101;-74
2021/12/25 11:34:25;;;;;;;40.55;24.85;;;;;;;6.04;100.00;96977.41;5112078;28;20024;-77
2021/12/25 11:36:52;;;;;;;42.85;24.48;;;;;;;6.03;100.00;96979.31;5113483;28;20016;-76
2021/12/25 11:39:20;;;;;;;39.97;24.73;;;;;;;6.04;100.00;96974.69;5108380;28;20118;-82
2021/12/25 11:41:47;;;;;;;35.70;23.25;;;;;;;6.05;100.00;96968.97;5110888;28;20023;-79
2021/12/25 11:44:42;;;;;;;33.53;20.33;;;;;;;6.07;100.00;96966.78;5110492;28;20092;-77
2021/12/25 11:47:27;;;;;;;32.97;21.25;;;;;;;6.05;100.00;96968.97;5109584;28;20289;-77
2021/12/25 11:49:55;;;;;;;34.85;21.38;;;;;;;6.27;100.00;96962.97;5108297;28;20027;-82
2021/12/25 11:52:25;;;;;;;32.72;21.42;;;;;;;6.43;100.00;96967.09;5110487;28;20032;-76
2021/12/25 12:00:41;;;;;;;32.90;21.35;;;;;;;6.45;100.00;96954.84;5107728;28;20046;-82
2021/12/25 12:03:07;;;;;;;37.00;23.73;;;;;;;6.47;100.00;96940.97;5109286;28;20479;-80
2021/12/25 12:05:35;;;;;;;33.70;21.02;;;;;;;6.59;100.00;96938.63;5112032;28;20049;-75
2021/12/25 12:08:05;;;;;;;34.88;21.27;;;;;;;6.56;100.00;96943.84;5109779;28;20774;-76
2021/12/25 12:10:45;;;;;;;38.60;23.40;;;;;;;6.65;100.00;96944.78;5107807;28;20027;-85
2021/12/25 12:13:19;;;;;;;37.50;23.60;;;;;;;6.61;100.00;96928.25;5095152;28;20110;-82
2021/12/25 12:15:50;;;;;;;39.17;22.70;;;;;;;6.71;100.00;96941.69;5110762;28;20032;-84
2021/12/25 12:18:37;;;;;;;37.17;23.45;;;;;;;6.83;100.00;96935.78;5097722;28;20066;-81
2021/12/25 12:21:18;;;;;;;36.72;22.17;;;;;;;6.88;100.00;96922.16;5096079;28;20034;-77
2021/12/25 12:26:44;;;;;;;31.95;19.48;;;;;;;7.18;100.00;96920.81;5099261;28;20035;-75
2021/12/25 12:29:10;;;;;;;27.65;18.25;;;;;;;7.30;100.00;96919.22;5103247;28;20562;-75
2021/12/25 12:31:44;;;;;;;30.60;19.42;;;;;;;7.43;100.00;96918.44;5100458;28;20403;-74
2021/12/25 12:34:37;;;;;;;32.08;18.95;;;;;;;7.63;100.00;96911.81;5100499;28;20103;-75
2021/12/25 12:37:15;;;;;;;36.75;20.08;;;;;;;7.73;100.00;96913.53;5092061;28;20047;-75
2021/12/25 12:39:40;;;;;;;29.05;19.27;;;;;;;7.92;100.00;96914.22;5095020;28;20039;-75